Etusivu
METAR-TAF:

METAR-TAF

Lentoasemat :

Växjö, Ruotsi

Leveyspiiri: 56-51N, Pituuspiiri: 014-50E, korkeus merenpinnasta: 199 m

Tämänhetkinen sää

Tämä raportti tehtiin 23 minuuttia sitten, kello 10.20 UTC
Tuuli 3 kn eri suunnista
Lämpötila 20°C
Kosteus 73%
Ilmanpaine 1016 hPa
Näkyvyys 10 km tai enemmän

METAR: ESMX 121020Z AUTO VRB03KT 9999 FEW022/// SCT066/// 20/15 Q1016

Aika: 12:43 (10:43 UTC)

Sääennuste

Tämä raportti tehtiin 5 tuntia ja 13 minuuttia sitten, kello 05.30 UTC
Ennuste voimassa 12. päivästä klo 06 UTC - 12. päivään klo 08 UTC
Tuuli 5 kn lounaasta
Näkyvyys: 0200 m
200 ft:n korkeudessa
sumua
Tulossa
12. päivästä klo 06 UTC - 12. päivään klo 07 UTC
Näkyvyys 10 km tai enemmän
ei pilviä alle 1500 m:ssä eikä cumulonimbus-pilviä

TAF: ESMX 120530Z 1206/1208 23005KT 0200 FG VV002 BECMG 1206/1207 CAVOK

Säähavainnot ja -ennusteet yli 4000 lentoasemalta (METAR- ja TAF-raportit).

Käytössä olevat sääasemat on merkitty karttaan keltaisilla ja punaisilla pisteillä.

Aseta hiiri pisteen päälle nähdäksesi sääaseman nimen.

Klikkaa sitten nähdäksesi säähavainnot ja -ennusteet.

Kartan vaihtaminen: klikkaa mustalla rastilla varustettuja vihreitä pisteitä, niin voit zoomata sisään; viivalla varustettua vihreää pistettä, niin voit zoomata ulos tai vihreitä nuolia, niin pääset viereisille kartoille.


METAR-TAF: